Time;durP1;ratioP1;P1;durP2;ratioP2;P2;SDS_P1;SDS_P2;PMS_P1;PMS_P2;Temp;Humidity;BMP_temperature;BMP_pressure;BME280_temperature;BME280_humidity;BME280_pressure;Samples;Min_cycle;Max_cycle;Signal;HPM_P1;HPM_P2
2023/09/20 00:01:50;;;;;;;14.70;8.07;;;;;;;21.57;69.08;100840.50;5052763;28;20029;-86
2023/09/20 00:04:16;;;;;;;15.73;8.32;;;;;;;21.56;68.77;100842.41;5066152;28;20029;-83
2023/09/20 00:06:42;;;;;;;13.40;8.60;;;;;;;21.43;68.68;100825.81;5072930;28;20036;-81
2023/09/20 00:09:08;;;;;;;25.95;9.48;;;;;;;21.51;68.97;100847.59;5072367;28;20021;-84
2023/09/20 00:11:34;;;;;;;15.25;8.70;;;;;;;21.50;69.11;100843.16;5069253;28;20096;-83
2023/09/20 00:13:59;;;;;;;15.18;8.88;;;;;;;21.47;69.03;100849.00;5069288;28;20112;-84
2023/09/20 00:16:25;;;;;;;26.73;8.63;;;;;;;21.39;69.25;100843.66;5072210;28;20085;-82
2023/09/20 00:18:51;;;;;;;12.88;8.60;;;;;;;21.34;69.78;100851.59;5061263;28;20052;-87
2023/09/20 00:21:16;;;;;;;16.92;7.85;;;;;;;21.33;70.00;100858.09;5067593;28;20056;-84
2023/09/20 00:23:42;;;;;;;25.17;9.13;;;;;;;21.30;70.13;100847.53;5070130;28;20113;-88
2023/09/20 00:26:08;;;;;;;24.67;9.93;;;;;;;21.35;69.89;100856.00;5050694;28;20021;-88
2023/09/20 00:28:35;;;;;;;13.27;8.40;;;;;;;21.36;69.78;100860.44;5049465;28;20033;-88
2023/09/20 00:31:01;;;;;;;19.92;9.43;;;;;;;21.33;69.98;100858.09;5050566;28;20056;-89
2023/09/20 00:33:29;;;;;;;20.25;8.80;;;;;;;21.33;70.06;100851.75;5049487;28;20059;-89
2023/09/20 00:35:55;;;;;;;21.55;8.80;;;;;;;21.29;70.06;100853.16;5051984;28;20037;-90
2023/09/20 00:38:20;;;;;;;18.45;9.73;;;;;;;21.22;70.44;100854.97;5054389;28;20086;-87
2023/09/20 00:40:47;;;;;;;19.25;10.57;;;;;;;21.21;70.54;100848.66;5054204;28;20025;-88
2023/09/20 00:43:13;;;;;;;17.58;9.13;;;;;;;21.21;70.49;100848.66;5053570;28;20057;-87
2023/09/20 00:45:40;;;;;;;13.75;8.95;;;;;;;21.19;70.79;100856.22;5053888;28;20048;-85
2023/09/20 00:48:07;;;;;;;27.27;9.75;;;;;;;21.18;70.68;100843.56;5054414;28;20039;-87
2023/09/20 00:50:35;;;;;;;16.50;9.35;;;;;;;20.98;70.77;100820.47;5054228;28;20024;-86
2023/09/20 00:53:06;;;;;;;24.75;10.15;;;;;;;21.17;70.96;100848.19;5054043;28;20025;-90
2023/09/20 00:55:34;;;;;;;17.95;8.98;;;;;;;20.80;70.93;100790.78;5054079;28;20052;-89
2023/09/20 00:58:04;;;;;;;20.02;9.27;;;;;;;21.13;71.31;100856.94;5055069;28;20107;-90
2023/09/20 01:00:32;;;;;;;24.00;9.50;;;;;;;21.09;71.16;100858.38;5061169;28;20067;-86
2023/09/20 01:03:00;;;;;;;43.45;10.15;;;;;;;21.07;71.06;100863.13;5058209;28;20139;-88
2023/09/20 01:05:27;;;;;;;28.55;11.02;;;;;;;21.11;70.73;100850.81;5053695;28;20036;-90
2023/09/20 01:07:57;;;;;;;21.38;9.85;;;;;;;21.08;70.74;100848.41;5053635;28;20029;-88
2023/09/20 01:10:26;;;;;;;21.10;9.55;;;;;;;21.07;70.70;100846.69;5053742;28;20492;-86
2023/09/20 01:12:54;;;;;;;31.60;9.90;;;;;;;20.96;70.84;100844.44;5053230;28;20047;-86
2023/09/20 01:15:21;;;;;;;19.67;10.90;;;;;;;20.95;71.25;100843.59;5053443;28;20109;-89
2023/09/20 01:17:48;;;;;;;18.65;10.73;;;;;;;20.97;71.15;100848.88;5052930;28;20033;-90
2023/09/20 01:20:18;;;;;;;17.23;10.10;;;;;;;20.97;70.92;100855.22;5053414;28;20031;-87
2023/09/20 01:22:45;;;;;;;18.83;10.93;;;;;;;20.94;71.09;100857.47;5053185;28;20550;-88
2023/09/20 01:25:17;;;;;;;21.90;10.77;;;;;;;20.88;71.32;100850.00;5053352;28;20085;-88
2023/09/20 01:27:43;;;;;;;27.13;10.93;;;;;;;20.84;71.79;100854.13;5053321;28;20469;-88
2023/09/20 01:30:09;;;;;;;15.70;11.60;;;;;;;20.80;72.04;100850.06;5053564;28;20125;-89
2023/09/20 01:32:36;;;;;;;29.17;12.82;;;;;;;20.61;72.00;100830.41;5053181;28;20022;-90
2023/09/20 01:35:02;;;;;;;43.03;12.30;;;;;;;20.68;72.12;100837.88;5052823;28;20025;-89
2023/09/20 01:37:28;;;;;;;32.40;12.98;;;;;;;20.81;71.96;100841.69;5053242;28;20025;-89
2023/09/20 01:39:54;;;;;;;22.70;11.68;;;;;;;20.75;71.55;100836.13;5052754;28;20029;-90
2023/09/20 01:42:21;;;;;;;22.40;12.80;;;;;;;20.79;71.61;100841.03;5053080;28;20516;-83
2023/09/20 01:44:49;;;;;;;30.75;11.88;;;;;;;20.79;71.76;100843.78;5053965;28;20044;-86
2023/09/20 01:47:15;;;;;;;21.70;13.30;;;;;;;20.76;71.89;100841.41;5052683;28;20507;-88
2023/09/20 01:49:41;;;;;;;26.17;13.35;;;;;;;20.48;71.96;100813.81;5053832;28;20021;-85
2023/09/20 01:52:07;;;;;;;28.35;14.00;;;;;;;20.49;72.02;100807.31;5056655;28;20040;-88
2023/09/20 01:54:32;;;;;;;22.10;13.13;;;;;;;20.64;72.34;100840.13;5057382;28;20406;-86
2023/09/20 01:56:58;;;;;;;23.48;12.85;;;;;;;20.46;72.29;100799.47;5057986;28;20029;-88
2023/09/20 01:59:24;;;;;;;18.40;13.15;;;;;;;20.64;71.88;100837.38;5056838;28;20025;-88
2023/09/20 02:01:50;;;;;;;19.58;12.82;;;;;;;20.63;71.99;100831.09;5053095;28;20459;-89
2023/09/20 02:04:15;;;;;;;16.65;12.00;;;;;;;20.56;72.17;100832.00;5052280;28;20539;-89
2023/09/20 02:06:41;;;;;;;22.75;13.20;;;;;;;20.36;72.38;100793.44;5034778;28;20041;-83
2023/09/20 02:09:08;;;;;;;28.33;12.77;;;;;;;20.47;72.41;100833.13;5053209;28;20702;-88
2023/09/20 02:11:33;;;;;;;23.02;14.65;;;;;;;20.42;72.78;100822.75;5052188;28;20029;-88
2023/09/20 02:14:00;;;;;;;19.50;12.00;;;;;;;20.27;72.83;100802.72;5052427;28;20035;-88
2023/09/20 02:16:25;;;;;;;26.13;13.55;;;;;;;20.40;72.85;100827.53;5052538;28;20075;-87
2023/09/20 02:18:52;;;;;;;23.67;12.88;;;;;;;20.37;72.93;100827.91;5052174;28;20021;-87
2023/09/20 02:21:18;;;;;;;18.48;10.93;;;;;;;20.35;73.27;100832.72;5052108;28;20033;-89
2023/09/20 02:23:44;;;;;;;16.98;10.63;;;;;;;20.35;73.02;100829.97;5051891;28;20575;-89
2023/09/20 02:26:10;;;;;;;19.45;10.70;;;;;;;20.17;72.88;100796.63;5052083;28;20033;-88
2023/09/20 02:28:35;;;;;;;18.55;11.25;;;;;;;20.30;73.11;100829.69;5052316;28;20029;-89
2023/09/20 02:31:01;;;;;;;23.35;10.98;;;;;;;20.38;73.25;100839.69;5052121;28;20489;-90
2023/09/20 02:33:27;;;;;;;25.00;11.82;;;;;;;20.35;73.39;100829.97;5051726;28;20745;-88
2023/09/20 02:35:52;;;;;;;21.48;10.73;;;;;;;20.27;73.16;100821.84;5051561;28;20032;-87
2023/09/20 02:38:18;;;;;;;37.55;12.85;;;;;;;20.30;73.29;100828.81;5051525;28;20025;-89
2023/09/20 02:40:46;;;;;;;24.00;10.68;;;;;;;20.31;73.31;100828.63;4999918;28;20029;-89
2023/09/20 02:43:13;;;;;;;31.98;12.57;;;;;;;20.31;73.44;100816.84;5052126;28;20060;-89
2023/09/20 02:45:39;;;;;;;24.15;13.10;;;;;;;20.32;73.76;100826.75;5054142;28;20085;-90
2023/09/20 02:48:08;;;;;;;26.73;14.77;;;;;;;20.35;73.66;100826.38;5056194;28;20033;-86
2023/09/20 02:50:34;;;;;;;32.42;16.17;;;;;;;20.42;73.86;100821.91;5060482;28;20020;-85
2023/09/20 02:53:00;;;;;;;25.42;13.50;;;;;;;20.42;73.48;100811.81;5051146;28;20036;-89
2023/09/20 02:55:27;;;;;;;25.30;15.73;;;;;;;20.38;73.34;100794.09;5051400;28;20067;-85
2023/09/20 02:57:54;;;;;;;25.90;13.00;;;;;;;20.52;73.41;100825.19;5051294;28;20484;-85
2023/09/20 03:00:21;;;;;;;35.38;13.88;;;;;;;20.59;73.17;100827.03;5051194;28;20068;-88
2023/09/20 03:02:51;;;;;;;27.17;12.45;;;;;;;20.66;72.80;100826.28;5051644;28;20059;-87
2023/09/20 03:05:19;;;;;;;28.90;12.35;;;;;;;20.64;72.38;100835.50;5033319;28;20465;-87
2023/09/20 03:07:45;;;;;;;31.67;14.18;;;;;;;20.68;72.33;100824.22;5051635;28;20095;-87
2023/09/20 03:10:13;;;;;;;27.13;14.30;;;;;;;20.76;71.82;100832.34;5051585;28;20029;-87
2023/09/20 03:12:44;;;;;;;23.08;13.43;;;;;;;20.75;71.65;100819.72;5051022;28;20024;-87
2023/09/20 03:15:17;;;;;;;34.58;14.02;;;;;;;20.77;71.72;100834.03;5051650;28;20050;-87
2023/09/20 03:17:43;;;;;;;25.52;15.98;;;;;;;20.80;71.95;100833.66;5051409;28;20037;-88
2023/09/20 03:20:22;;;;;;;27.67;15.98;;;;;;;20.86;71.64;100832.91;5051362;28;20044;-87
2023/09/20 03:22:53;;;;;;;30.65;16.23;;;;;;;20.67;71.23;100795.19;5050900;28;20463;-87
2023/09/20 03:25:19;;;;;;;26.60;15.30;;;;;;;20.87;70.99;100824.53;5050781;28;20021;-87
2023/09/20 03:27:49;;;;;;;33.05;15.15;;;;;;;20.82;71.27;100820.66;5050404;28;20544;-87
2023/09/20 03:30:16;;;;;;;33.20;15.00;;;;;;;20.88;71.20;100830.88;5050329;28;20029;-84
2023/09/20 03:32:44;;;;;;;34.88;14.90;;;;;;;20.89;71.20;100829.81;5050643;28;20032;-89
2023/09/20 03:35:12;;;;;;;34.13;15.98;;;;;;;20.86;71.33;100838.38;5050611;28;20065;-86
2023/09/20 03:37:40;;;;;;;50.53;18.85;;;;;;;20.88;71.46;100830.88;5050529;28;20036;-88
2023/09/20 03:40:16;;;;;;;30.48;17.63;;;;;;;20.81;71.36;100829.91;4998238;28;20128;-87
2023/09/20 03:42:42;;;;;;;29.75;16.10;;;;;;;20.75;71.65;100815.09;5034692;28;20424;-85
2023/09/20 03:45:10;;;;;;;42.70;16.73;;;;;;;20.82;71.53;100821.53;5050374;28;20033;-87
2023/09/20 03:47:35;;;;;;;30.20;16.33;;;;;;;20.85;71.43;100821.16;5049753;28;20508;-88
2023/09/20 03:50:02;;;;;;;37.28;15.95;;;;;;;20.88;71.55;100825.41;5050517;28;20029;-89
2023/09/20 03:52:28;;;;;;;38.15;16.42;;;;;;;20.86;71.60;100838.38;5050531;28;20091;-86
2023/09/20 03:54:54;;;;;;;40.75;17.50;;;;;;;20.76;71.94;100838.69;5050448;28;20074;-86
2023/09/20 03:57:24;;;;;;;40.80;17.83;;;;;;;20.80;72.38;100833.66;5050851;28;20021;-84
2023/09/20 03:59:53;;;;;;;77.65;21.83;;;;;;;20.88;71.67;100837.19;5052530;28;20036;-93
2023/09/20 04:02:25;;;;;;;52.72;19.08;;;;;;;20.85;71.71;100843.03;5057654;28;20021;-90
2023/09/20 04:04:53;;;;;;;92.70;24.37;;;;;;;20.90;71.50;100846.03;5061268;28;20021;-87
2023/09/20 04:07:23;;;;;;;40.58;19.80;;;;;;;20.81;71.49;100825.28;5053927;28;20037;-90
2023/09/20 04:09:48;;;;;;;45.72;20.63;;;;;;;20.83;71.50;100834.13;5050840;28;20024;-89
2023/09/20 04:12:14;;;;;;;56.85;21.02;;;;;;;20.50;71.67;100778.94;5053528;28;20054;-91
2023/09/20 04:14:41;;;;;;;78.75;21.70;;;;;;;20.60;71.78;100795.09;5051538;28;20029;-91
2023/09/20 04:17:07;;;;;;;98.30;21.85;;;;;;;20.83;71.73;100839.59;5052323;28;20202;-88
2023/09/20 04:19:33;;;;;;;58.95;20.00;;;;;;;20.83;71.94;100839.59;5052173;28;20033;-90
2023/09/20 04:22:04;;;;;;;90.25;19.88;;;;;;;20.71;71.91;100810.16;5053022;28;20037;-89
2023/09/20 04:24:30;;;;;;;53.55;21.70;;;;;;;20.87;72.01;100840.09;5050703;28;20108;-84
2023/09/20 04:26:55;;;;;;;66.47;19.98;;;;;;;20.88;71.96;100837.19;5050359;28;20467;-87
2023/09/20 04:29:22;;;;;;;81.43;31.80;;;;;;;20.86;72.06;100833.75;5053318;28;20025;-88
2023/09/20 04:31:49;;;;;;;72.05;22.15;;;;;;;20.93;71.48;100839.34;5053247;28;20040;-88
2023/09/20 04:34:15;;;;;;;57.72;19.23;;;;;;;20.86;71.61;100830.19;5052781;28;20434;-86
2023/09/20 04:36:41;;;;;;;72.70;20.80;;;;;;;20.88;71.66;100822.66;5034962;28;20087;-82
2023/09/20 04:39:06;;;;;;;74.72;22.10;;;;;;;20.76;71.76;100794.09;5032485;28;20025;-85
2023/09/20 04:41:34;;;;;;;88.65;26.00;;;;;;;20.96;71.85;100834.34;5050104;28;20061;-85
2023/09/20 04:44:00;;;;;;;78.70;28.48;;;;;;;20.83;71.41;100804.06;5050419;28;20036;-85
2023/09/20 04:46:27;;;;;;;80.03;28.85;;;;;;;21.05;71.22;100837.84;5050524;28;20051;-85
2023/09/20 04:48:52;;;;;;;73.13;29.25;;;;;;;21.03;70.75;100829.00;5049834;28;20025;-83
2023/09/20 04:51:18;;;;;;;85.95;30.67;;;;;;;21.01;70.59;100825.56;5050658;28;20029;-84
2023/09/20 04:53:44;;;;;;;67.95;30.50;;;;;;;21.11;70.77;100828.94;5049626;28;20028;-84
2023/09/20 04:56:09;;;;;;;69.00;29.92;;;;;;;21.16;70.60;100840.13;5051733;28;20029;-82
2023/09/20 04:58:35;;;;;;;69.75;27.17;;;;;;;21.17;70.70;100839.97;5051886;28;20401;-85
2023/09/20 05:01:00;;;;;;;73.28;29.02;;;;;;;21.12;70.52;100819.69;5050998;28;20029;-85
2023/09/20 05:03:26;;;;;;;81.18;32.95;;;;;;;21.13;69.61;100811.28;5053045;28;20017;-83
2023/09/20 05:05:53;;;;;;;77.47;30.30;;;;;;;21.14;69.23;100801.19;5016833;28;20745;-85
2023/09/20 05:08:18;;;;;;;84.85;31.38;;;;;;;21.23;69.12;100835.63;5051335;28;20037;-85
2023/09/20 05:10:44;;;;;;;93.07;31.55;;;;;;;21.22;69.21;100838.56;5051106;28;20033;-84
2023/09/20 05:13:10;;;;;;;79.43;32.10;;;;;;;21.20;69.54;100830.53;5049788;28;20401;-84
2023/09/20 05:15:39;;;;;;;84.22;31.73;;;;;;;21.42;69.01;100835.06;5050648;28;20036;-84
2023/09/20 05:18:06;;;;;;;91.22;32.35;;;;;;;21.52;68.48;100841.09;5050224;28;20119;-84
2023/09/20 05:20:32;;;;;;;151.55;37.22;;;;;;;21.58;68.46;100829.38;5049784;28;20025;-85
2023/09/20 05:22:59;;;;;;;138.52;45.78;;;;;;;21.70;68.12;100833.31;5051564;28;20075;-84
2023/09/20 05:25:25;;;;;;;85.88;28.88;;;;;;;21.75;67.58;100826.41;5053079;28;20032;-85
2023/09/20 05:27:51;;;;;;;94.28;29.08;;;;;;;21.79;67.70;100841.41;5052885;28;20033;-85
2023/09/20 05:30:18;;;;;;;87.10;26.75;;;;;;;21.94;67.81;100842.25;5053303;28;20027;-84
2023/09/20 05:32:45;;;;;;;60.72;23.75;;;;;;;21.88;67.13;100832.94;5052991;28;20132;-85
2023/09/20 05:35:11;;;;;;;71.80;25.75;;;;;;;21.83;66.61;100815.34;5052788;28;20033;-83
2023/09/20 05:37:39;;;;;;;91.85;24.25;;;;;;;21.88;66.79;100819.25;5053073;28;20043;-85
2023/09/20 05:40:17;;;;;;;65.75;23.17;;;;;;;22.19;66.12;100838.97;5052928;28;20032;-84
2023/09/20 05:42:44;;;;;;;83.30;25.55;;;;;;;22.20;65.87;100842.53;5052777;28;20631;-84
2023/09/20 05:45:10;;;;;;;63.38;24.05;;;;;;;22.22;65.68;100838.59;5054658;28;20115;-84
2023/09/20 05:47:36;;;;;;;76.25;23.38;;;;;;;22.34;65.33;100852.59;5058376;28;20040;-85
2023/09/20 05:50:02;;;;;;;52.20;22.70;;;;;;;22.16;65.11;100813.84;5060426;28;20036;-83
2023/09/20 05:52:28;;;;;;;50.30;24.10;;;;;;;22.29;65.14;100851.50;5066093;28;20033;-84
2023/09/20 05:54:53;;;;;;;59.33;27.15;;;;;;;22.34;65.42;100865.47;5065031;28;20040;-84
2023/09/20 05:57:19;;;;;;;68.30;28.55;;;;;;;22.28;64.79;100864.34;5063818;28;20029;-85
2023/09/20 05:59:45;;;;;;;58.22;28.15;;;;;;;22.22;65.37;100876.94;5043334;28;20033;-85
2023/09/20 06:02:10;;;;;;;73.32;30.60;;;;;;;22.27;64.97;100862.66;5059059;28;20052;-85
2023/09/20 06:04:39;;;;;;;70.72;29.17;;;;;;;22.29;65.22;100873.44;5054758;28;20036;-84
2023/09/20 06:07:04;;;;;;;77.15;29.75;;;;;;;22.27;65.00;100854.44;5053935;28;20032;-84
2023/09/20 06:09:30;;;;;;;59.92;26.58;;;;;;;22.32;64.96;100859.34;5051884;28;20036;-84
2023/09/20 06:11:56;;;;;;;84.90;30.27;;;;;;;22.47;64.61;100863.72;5052032;28;20033;-87
2023/09/20 06:14:22;;;;;;;101.05;29.42;;;;;;;22.38;64.56;100840.22;5051830;28;20039;-84
2023/09/20 06:16:48;;;;;;;54.63;26.65;;;;;;;22.59;64.60;100884.06;5052190;28;20048;-83
2023/09/20 06:19:16;;;;;;;67.22;28.30;;;;;;;22.65;64.22;100880.59;5051778;28;20033;-84
2023/09/20 06:21:43;;;;;;;71.22;28.88;;;;;;;22.75;64.32;100874.75;5052214;28;20036;-83
2023/09/20 06:24:11;;;;;;;77.78;27.27;;;;;;;22.84;63.54;100880.94;5052274;28;20459;-84
2023/09/20 06:26:40;;;;;;;67.78;25.60;;;;;;;22.74;63.66;100882.13;5052175;28;20739;-85
2023/09/20 06:29:05;;;;;;;51.22;25.45;;;;;;;22.80;63.53;100863.19;5051720;28;20025;-84
2023/09/20 06:31:31;;;;;;;60.03;26.25;;;;;;;22.90;63.63;100874.66;5051707;28;20171;-84
2023/09/20 06:33:56;;;;;;;50.60;24.38;;;;;;;22.85;63.13;100877.13;5033863;28;20029;-85
2023/09/20 06:36:22;;;;;;;63.05;24.10;;;;;;;22.90;63.44;100888.38;5051522;28;20029;-83
2023/09/20 06:38:47;;;;;;;42.28;23.70;;;;;;;22.96;63.37;100887.59;5052259;28;20032;-84
2023/09/20 06:41:13;;;;;;;70.82;27.63;;;;;;;22.95;63.23;100877.66;5051096;28;20057;-84
2023/09/20 06:43:39;;;;;;;59.40;25.63;;;;;;;23.06;62.77;100886.19;5051629;28;20412;-85
2023/09/20 06:46:06;;;;;;;63.08;29.05;;;;;;;23.00;62.26;100859.53;5051248;28;20122;-85
2023/09/20 06:48:32;;;;;;;60.95;32.72;;;;;;;23.22;62.68;100902.34;5051891;28;20029;-84
2023/09/20 06:50:57;;;;;;;63.38;34.97;;;;;;;23.29;62.57;100908.75;5051238;28;20031;-84
2023/09/20 06:53:23;;;;;;;64.65;34.40;;;;;;;23.37;61.94;100895.88;5050923;28;20044;-84
2023/09/20 06:55:50;;;;;;;67.35;37.72;;;;;;;23.42;62.09;100909.91;5051572;28;20029;-85
2023/09/20 06:58:15;;;;;;;69.32;37.10;;;;;;;23.40;61.70;100881.78;5051354;28;20032;-84
2023/09/20 07:00:41;;;;;;;59.33;32.75;;;;;;;23.57;61.83;100906.00;5051135;28;20029;-86
2023/09/20 07:03:08;;;;;;;54.45;28.77;;;;;;;23.70;61.11;100917.03;5052081;28;20463;-85
2023/09/20 07:05:34;;;;;;;59.75;29.35;;;;;;;23.56;61.03;100876.84;5052662;28;20031;-84
2023/09/20 07:08:00;;;;;;;57.30;29.38;;;;;;;23.80;60.52;100916.66;5056452;28;20152;-84
2023/09/20 07:10:26;;;;;;;81.60;31.05;;;;;;;23.70;60.06;100895.06;5054144;28;20033;-83
2023/09/20 07:12:54;;;;;;;70.55;29.15;;;;;;;23.86;60.65;100915.84;5033695;28;20116;-86
2023/09/20 07:15:20;;;;;;;54.33;25.45;;;;;;;23.94;60.47;100925.84;5051085;28;20072;-84
2023/09/20 07:17:58;;;;;;;75.93;28.35;;;;;;;23.93;60.10;100921.38;5033061;28;20025;-84
2023/09/20 07:20:24;;;;;;;72.72;30.85;;;;;;;24.07;59.82;100928.63;5051353;28;20036;-84
2023/09/20 07:22:51;;;;;;;78.18;27.10;;;;;;;24.21;59.75;100913.94;5051111;28;20400;-84
2023/09/20 07:25:20;;;;;;;66.47;26.95;;;;;;;24.31;59.12;100925.38;5050692;28;20020;-85
2023/09/20 07:27:47;;;;;;;44.80;21.65;;;;;;;24.25;58.71;100882.19;5050653;28;20025;-85
2023/09/20 07:30:18;;;;;;;67.47;24.52;;;;;;;24.50;57.83;100898.97;5015497;28;20186;-84
2023/09/20 07:32:47;;;;;;;47.33;23.08;;;;;;;24.68;57.89;100911.06;5032742;28;20488;-86
2023/09/20 07:35:19;;;;;;;49.17;21.98;;;;;;;24.64;57.81;100881.44;5050170;28;20326;-85
2023/09/20 07:37:48;;;;;;;;;;;;;;;24.81;56.80;100911.09;5051101;28;20017;-84
2023/09/20 07:40:13;;;;;;;56.95;22.23;;;;;;;24.75;57.16;100898.16;5050635;28;19904;-83
2023/09/20 07:42:40;;;;;;;61.78;23.58;;;;;;;24.78;56.58;100872.97;5050125;28;20103;-84
2023/09/20 07:45:12;;;;;;;56.53;20.05;;;;;;;24.98;55.81;100916.22;5049449;28;20032;-84
2023/09/20 07:47:39;;;;;;;40.92;20.25;;;;;;;24.96;55.94;100918.31;5050356;28;20037;-83
2023/09/20 07:50:07;;;;;;;54.20;21.25;;;;;;;24.88;55.67;100895.47;4998000;28;20064;-85
2023/09/20 07:52:35;;;;;;;37.25;19.67;;;;;;;24.84;55.81;100899.69;5050121;28;20029;-84
2023/09/20 07:55:04;;;;;;;70.75;24.02;;;;;;;25.03;55.74;100924.66;5049774;28;20056;-85
2023/09/20 07:57:30;;;;;;;51.05;18.25;;;;;;;25.05;55.86;100928.91;5050218;28;20063;-84
2023/09/20 07:59:59;;;;;;;33.90;11.52;;;;;;;25.09;55.34;100935.69;5049925;28;20017;-82
2023/09/20 08:02:27;;;;;;;28.40;8.68;;;;;;;24.81;54.98;100900.09;5050002;28;20555;-83
2023/09/20 08:04:54;;;;;;;60.33;10.50;;;;;;;25.01;55.20;100932.28;5049581;28;20060;-83
2023/09/20 08:07:19;;;;;;;19.83;6.57;;;;;;;25.09;54.46;100929.31;5049655;28;20036;-85
2023/09/20 08:09:45;;;;;;;17.75;6.70;;;;;;;25.04;54.37;100931.88;5049934;28;20025;-85
2023/09/20 08:12:11;;;;;;;20.80;6.75;;;;;;;24.77;54.79;100901.53;5032262;28;20405;-84
2023/09/20 08:14:37;;;;;;;25.60;7.47;;;;;;;24.77;55.69;100926.31;5049921;28;20028;-84
2023/09/20 08:19:47;;;;;;;25.98;6.95;;;;;;;24.90;55.17;100909.84;5049758;28;20126;-86
2023/09/20 08:22:15;;;;;;;21.20;6.63;;;;;;;24.94;54.75;100921.28;5049764;28;20470;-84
2023/09/20 09:00:40;;;;;;;29.02;8.23;;;;;;;25.73;56.75;100932.22;5053107;28;20566;-84
2023/09/20 09:03:05;;;;;;;32.95;7.28;;;;;;;26.05;56.34;100938.72;5052951;28;20029;-83
2023/09/20 09:05:32;;;;;;;13.60;5.68;;;;;;;25.99;54.39;100910.94;5053155;28;20174;-87
2023/09/20 09:07:59;;;;;;;11.63;5.20;;;;;;;26.10;53.53;100883.75;5053454;28;20039;-84
2023/09/20 09:10:26;;;;;;;11.45;5.53;;;;;;;26.48;53.36;100926.00;5053370;28;20036;-85
2023/09/20 09:12:51;;;;;;;31.33;6.20;;;;;;;26.55;52.56;100932.31;5053491;28;20024;-85
2023/09/20 09:15:17;;;;;;;20.13;5.43;;;;;;;26.60;53.59;100935.28;5053194;28;20051;-83
2023/09/20 09:17:45;;;;;;;16.90;6.05;;;;;;;26.54;53.60;100935.31;5053167;28;20412;-83
2023/09/20 09:20:21;;;;;;;16.08;4.85;;;;;;;26.45;52.59;100929.22;5053231;28;20032;-84
2023/09/20 09:22:47;;;;;;;11.23;5.43;;;;;;;26.25;53.36;100896.22;5052678;28;20029;-83
2023/09/20 09:25:14;;;;;;;23.55;7.05;;;;;;;26.32;53.80;100913.56;5053412;28;20052;-85
2023/09/20 09:27:42;;;;;;;15.07;5.65;;;;;;;26.29;54.29;100921.44;5051555;28;20025;-84
2023/09/20 09:30:10;;;;;;;25.90;6.40;;;;;;;26.01;55.08;100896.09;5053089;28;20560;-85
2023/09/20 09:32:36;;;;;;;21.23;6.05;;;;;;;26.08;56.12;100925.34;5023041;28;20039;-85
2023/09/20 09:35:06;;;;;;;17.17;5.95;;;;;;;26.06;56.60;100916.41;5056426;28;20059;-84
2023/09/20 09:37:33;;;;;;;13.80;6.55;;;;;;;26.07;56.48;100933.81;5058237;28;20029;-84
2023/09/20 09:40:00;;;;;;;36.20;8.23;;;;;;;26.01;55.85;100924.50;5053585;28;20103;-84
2023/09/20 09:42:28;;;;;;;19.52;5.03;;;;;;;26.05;56.04;100911.13;5052579;28;20045;-86
2023/09/20 09:44:55;;;;;;;21.65;5.68;;;;;;;25.98;56.55;100917.53;5052201;28;20528;-85
2023/09/20 09:47:21;;;;;;;12.65;5.18;;;;;;;25.79;57.71;100915.69;5052425;28;20103;-85
2023/09/20 09:49:50;;;;;;;17.20;5.75;;;;;;;25.72;57.84;100909.31;5053054;28;20051;-83
2023/09/20 09:52:17;;;;;;;14.60;5.88;;;;;;;25.49;58.17;100897.97;5052180;28;20079;-83
2023/09/20 09:54:44;;;;;;;16.90;6.03;;;;;;;25.45;59.89;100918.69;5052510;28;20044;-86
2023/09/20 09:57:11;;;;;;;10.57;5.80;;;;;;;25.58;59.47;100923.38;5052440;28;20021;-84
2023/09/20 09:59:36;;;;;;;10.90;6.40;;;;;;;25.67;59.22;100917.41;5052480;28;20033;-86
2023/09/20 10:02:09;;;;;;;23.80;8.38;;;;;;;25.77;58.68;100916.97;5052015;28;20057;-83
2023/09/20 10:04:36;;;;;;;15.07;5.60;;;;;;;25.95;59.10;100920.72;5050385;28;20029;-85
2023/09/20 10:07:10;;;;;;;24.77;6.10;;;;;;;26.18;58.08;100913.84;5052584;28;20031;-84
2023/09/20 10:09:39;;;;;;;20.25;6.20;;;;;;;26.26;57.42;100916.38;5051299;28;20481;-85
2023/09/20 10:12:08;;;;;;;27.25;5.10;;;;;;;26.14;56.86;100918.09;5052350;28;20025;-84
2023/09/20 10:14:36;;;;;;;14.45;5.38;;;;;;;25.87;56.60;100863.06;5051476;28;20550;-84
2023/09/20 10:17:08;;;;;;;17.08;5.53;;;;;;;26.22;56.53;100909.59;5051964;28;20570;-83
2023/09/20 10:19:38;;;;;;;22.70;6.18;;;;;;;25.99;56.36;100883.34;5051674;28;20508;-85
2023/09/20 10:22:11;;;;;;;13.40;5.07;;;;;;;25.92;56.68;100884.47;5051650;28;20029;-85
2023/09/20 10:24:53;;;;;;;11.20;4.70;;;;;;;26.17;56.06;100909.41;5052127;28;20575;-84
2023/09/20 10:27:23;;;;;;;19.38;6.07;;;;;;;26.13;55.56;100905.34;5052010;28;20052;-83
2023/09/20 10:30:10;;;;;;;10.32;5.28;;;;;;;26.29;55.81;100896.63;5052075;28;20386;-84
2023/09/20 10:32:47;;;;;;;19.75;5.78;;;;;;;26.40;56.11;100907.78;5052179;28;20025;-84
2023/09/20 10:35:30;;;;;;;14.68;4.90;;;;;;;26.57;55.26;100905.38;5051975;28;20029;-84
2023/09/20 10:37:56;;;;;;;;;;;;;;;26.64;54.38;100895.09;5053500;28;20061;-84
2023/09/20 10:40:21;;;;;;;12.93;5.88;;;;;;;26.39;56.25;100900.56;5053816;28;19908;-87
2023/09/20 10:42:51;;;;;;;19.75;5.40;;;;;;;26.59;56.08;100883.91;5050921;28;20484;-84
2023/09/20 10:45:17;;;;;;;25.40;5.80;;;;;;;26.54;54.53;100875.47;5015527;28;20033;-85
2023/09/20 10:47:48;;;;;;;8.68;4.22;;;;;;;26.73;53.32;100898.44;5051265;28;20028;-82
2023/09/20 10:50:48;;;;;;;8.45;4.03;;;;;;;26.66;53.38;100901.25;5051085;28;20536;-86
2023/09/20 10:53:18;;;;;;;10.98;5.35;;;;;;;26.58;53.83;100886.88;5051549;28;20033;-84
2023/09/20 10:55:44;;;;;;;21.75;5.40;;;;;;;26.58;54.03;100901.50;5051458;28;20037;-83
2023/09/20 10:58:09;;;;;;;15.18;5.13;;;;;;;26.69;53.86;100889.78;5051024;28;20048;-86
2023/09/20 11:00:36;;;;;;;26.67;7.25;;;;;;;26.83;54.13;100890.53;5051455;28;20032;-85
2023/09/20 11:03:06;;;;;;;14.25;4.70;;;;;;;26.77;54.13;100881.22;5051090;28;20061;-85
2023/09/20 11:05:33;;;;;;;26.30;5.10;;;;;;;26.61;53.95;100862.44;5016080;28;20037;-83
2023/09/20 11:08:07;;;;;;;12.65;4.85;;;;;;;26.78;54.49;100888.44;5051113;28;20028;-85
2023/09/20 11:10:36;;;;;;;28.10;6.00;;;;;;;26.71;54.63;100878.50;5051164;28;20491;-85
2023/09/20 11:13:06;;;;;;;22.58;5.82;;;;;;;26.74;54.57;100892.69;5050869;28;20040;-85
2023/09/20 11:15:40;;;;;;;9.93;5.07;;;;;;;26.58;53.18;100887.72;4999738;28;20040;-84
2023/09/20 11:18:06;;;;;;;23.80;5.53;;;;;;;26.58;54.32;100876.69;5051429;28;20151;-84
2023/09/20 11:20:32;;;;;;;15.45;4.68;;;;;;;26.69;54.64;100884.25;5050129;28;20116;-85
2023/09/20 11:22:58;;;;;;;12.23;5.78;;;;;;;26.80;54.01;100861.47;5051743;28;20510;-83
2023/09/20 11:25:23;;;;;;;15.57;5.28;;;;;;;27.09;52.76;100886.72;5051080;28;20021;-84
2023/09/20 11:27:49;;;;;;;31.48;6.50;;;;;;;27.25;52.50;100875.06;5050908;28;20473;-85
2023/09/20 11:30:15;;;;;;;50.95;8.88;;;;;;;27.38;52.46;100880.47;5051118;28;20481;-84
2023/09/20 11:32:41;;;;;;;11.45;5.38;;;;;;;27.37;51.73;100849.22;5050258;28;20459;-84
2023/09/20 11:35:07;;;;;;;13.98;4.88;;;;;;;27.50;52.44;100871.22;5050309;28;20040;-85
2023/09/20 11:37:35;;;;;;;14.20;4.90;;;;;;;27.64;51.59;100877.47;5049529;28;20025;-84
2023/09/20 11:40:01;;;;;;;15.88;5.00;;;;;;;27.37;51.69;100860.28;5051256;28;20029;-84
2023/09/20 11:42:27;;;;;;;11.45;4.68;;;;;;;27.31;51.82;100876.91;5051485;28;20106;-85
2023/09/20 11:44:55;;;;;;;13.77;5.25;;;;;;;27.25;52.66;100872.31;5051007;28;20039;-84
2023/09/20 11:47:20;;;;;;;10.85;4.30;;;;;;;27.04;52.08;100882.72;5051519;28;20025;-85
2023/09/20 11:49:47;;;;;;;7.45;4.28;;;;;;;26.94;52.76;100854.75;5050582;28;20031;-84
2023/09/20 11:52:17;;;;;;;89.63;14.65;;;;;;;27.27;52.34;100872.94;5050600;28;20112;-86